1995 GAIL (1995032S10074)


On this page: IBTrACS data - Map and Plots - Positions - Intensities - Original source data

Summary

Start Jan 31
End Feb 12
Basin SI
LMI 75 kt
Sources jtwc_sh
reunion
neumann
In WMO? Yes
Previous storm 1995 FODAH (SI)
Previous in basin 1995 FODAH (SI)
Concurrent storms 1995 DORINA (SI)
1995 GAIL (SI)
1995 HEIDA (SI)
Next in basin 1995 HEIDA (SI)
Next storm 1995 HEIDA (SI)

top of page IBTrACS Data: File Access

top of page HURSAT Data: File Access

Image of storm

top of page Plots:

Map of storm track will not appear if FTP is down
Time series of cyclone Maximum Sustained Wind will not appear if FTP is down
Time series of cyclone Minimum Central Pressure will not appear if FTP is down

top of page Track Data:Position

jtwc_sh reunion neumann
Date Lat Lon Lat Lon Lat Lon
1995-01-31 12:00:00 -10.4 73.9
1995-01-31 18:00:00 -12.5 72.0 -10.8 73.3 -12.5 72.0
1995-02-01 00:00:00 -12.6 71.9 -11.2 72.7 -12.6 71.9
1995-02-01 06:00:00 -12.6 71.8 -11.3 71.8 -12.6 71.8
1995-02-01 12:00:00 -12.5 71.7 -11.6 71.5 -12.5 71.7
1995-02-01 18:00:00 -12.4 71.6 -11.9 71.4 -12.4 71.6
1995-02-02 00:00:00 -12.3 71.5 -12.2 71.4 -12.3 71.5
1995-02-02 06:00:00 -12.2 71.4 -12.5 71.4 -12.2 71.4
1995-02-02 12:00:00 -12.1 71.3 -12.6 71.4 -12.1 71.3
1995-02-02 18:00:00 -12.0 71.3 -12.6 71.3 -12.0 71.3
1995-02-03 00:00:00 -11.9 71.4 -12.6 71.3 -11.9 71.4
1995-02-03 06:00:00 -11.8 71.5 -12.5 71.4 -11.8 71.5
1995-02-03 12:00:00 -11.7 71.7 -12.2 71.8 -11.7 71.7
1995-02-03 18:00:00 -11.6 72.0 -12.1 72.2 -11.6 72.0
1995-02-04 00:00:00 -11.7 72.3 -12.0 72.7 -11.7 72.3
1995-02-04 06:00:00 -11.8 72.5 -11.9 73.1 -11.8 72.5
1995-02-04 12:00:00 -12.0 72.7 -11.8 73.3 -12.0 72.7
1995-02-04 18:00:00 -12.3 72.8 -12.0 73.3 -12.3 72.8
1995-02-05 00:00:00 -12.6 72.7 -12.1 73.3 -12.6 72.7
1995-02-05 06:00:00 -12.9 72.5 -12.2 73.3 -12.9 72.5
1995-02-05 12:00:00 -13.1 72.2 -12.3 73.1 -13.1 72.2
1995-02-05 18:00:00 -13.3 71.9 -12.6 72.9 -13.3 71.9
1995-02-06 00:00:00 -13.6 71.6 -13.0 72.4 -13.6 71.6
1995-02-06 06:00:00 -13.9 71.2 -13.6 71.7 -13.9 71.2
1995-02-06 12:00:00 -14.2 70.7 -14.0 71.1 -14.2 70.7
jtwc_sh reunion neumann
1995-02-06 18:00:00 -14.6 70.1 -14.5 70.4 -14.6 70.1
1995-02-07 00:00:00 -15.1 69.4 -15.1 69.4 -15.1 69.4
1995-02-07 06:00:00 -15.6 68.6 -15.8 68.4 -15.6 68.6
1995-02-07 12:00:00 -16.2 67.9 -16.3 67.9 -16.2 67.9
1995-02-07 18:00:00 -16.8 67.3 -16.7 67.5 -16.8 67.3
1995-02-08 00:00:00 -17.4 66.7 -17.5 66.5 -17.4 66.7
1995-02-08 06:00:00 -18.0 66.0 -18.3 65.7 -18.0 66.0
1995-02-08 12:00:00 -18.5 65.2 -18.8 65.0 -18.5 65.2
1995-02-08 18:00:00 -19.0 64.4 -19.3 64.1 -19.0 64.4
1995-02-09 00:00:00 -19.4 63.4 -19.5 63.2 -19.4 63.4
1995-02-09 06:00:00 -19.9 62.4 -19.9 62.1 -19.9 62.4
1995-02-09 12:00:00 -20.5 61.3 -20.8 61.0 -20.5 61.3
1995-02-09 18:00:00 -21.4 60.3 -21.7 60.2 -21.4 60.3
1995-02-10 00:00:00 -22.6 59.6 -22.9 59.5 -22.6 59.6
1995-02-10 06:00:00 -24.0 59.3 -24.1 59.0 -24.0 59.3
1995-02-10 12:00:00 -25.6 59.2 -25.5 59.1 -25.6 59.2
1995-02-10 18:00:00 -27.3 59.7 -27.1 59.8 -27.3 59.7
1995-02-11 00:00:00 -29.1 60.7 -28.9 60.9 -29.1 60.7
1995-02-11 06:00:00 -31.0 61.9 -30.8 62.0 -31.0 61.9
1995-02-11 12:00:00 -33.1 63.1 -33.2 63.3 -33.1 63.1
1995-02-11 18:00:00 -35.3 64.4 -35.8 64.8 -35.3 64.4
1995-02-12 00:00:00 -37.5 65.6 -37.5 65.6
1995-02-12 06:00:00 -39.7 66.9 -39.7 66.9
1995-02-12 12:00:00 -41.7 68.8 -41.7 68.8

top of pageTrack Data:Intensity

jtwc_sh reunion neumann
Date Wind Pres Wind Pres Wind Pres
1995-01-31 12:00:00 20. 1004.
1995-01-31 18:00:00 15. 20. 1004. 15.
1995-02-01 00:00:00 15. 25. 1002. 15.
1995-02-01 06:00:00 15. 25. 1002. 15.
1995-02-01 12:00:00 20. 25. 1002. 20.
1995-02-01 18:00:00 20. 25. 1002. 20.
1995-02-02 00:00:00 20. 25. 1000. 20.
1995-02-02 06:00:00 20. 25. 1000. 20.
1995-02-02 12:00:00 25. 25. 1000. 25.
1995-02-02 18:00:00 25. 25. 1000. 25.
1995-02-03 00:00:00 25. 25. 1000. 25.
1995-02-03 06:00:00 20. 25. 1000. 20.
1995-02-03 12:00:00 20. 25. 1000. 20.
1995-02-03 18:00:00 20. 25. 1000. 20.
1995-02-04 00:00:00 20. 25. 1000. 20.
1995-02-04 06:00:00 25. 28. 998. 25.
1995-02-04 12:00:00 25. 28. 998. 25.
1995-02-04 18:00:00 30. 28. 998. 30.
1995-02-05 00:00:00 30. 30. 996. 30.
1995-02-05 06:00:00 30. 30. 996. 30.
1995-02-05 12:00:00 35. 30. 996. 35.
1995-02-05 18:00:00 45. 35. 992. 45.
1995-02-06 00:00:00 55. 42. 988. 55.
1995-02-06 06:00:00 65. 50. 982. 65.
1995-02-06 12:00:00 65. 55. 980. 65.
jtwc_sh reunion neumann
1995-02-06 18:00:00 70. 55. 980. 70.
1995-02-07 00:00:00 70. 60. 975. 70.
1995-02-07 06:00:00 70. 65. 970. 70.
1995-02-07 12:00:00 75. 65. 970. 75.
1995-02-07 18:00:00 75. 65. 970. 75.
1995-02-08 00:00:00 75. 60. 975. 75.
1995-02-08 06:00:00 75. 60. 975. 75.
1995-02-08 12:00:00 70. 60. 975. 70.
1995-02-08 18:00:00 70. 60. 975. 70.
1995-02-09 00:00:00 70. 60. 975. 70.
1995-02-09 06:00:00 65. 55. 980. 65.
1995-02-09 12:00:00 65. 55. 980. 65.
1995-02-09 18:00:00 65. 60. 975. 65.
1995-02-10 00:00:00 65. 60. 975. 65.
1995-02-10 06:00:00 70. 60. 975. 70.
1995-02-10 12:00:00 75. 55. 980. 75.
1995-02-10 18:00:00 75. 55. 980. 75.
1995-02-11 00:00:00 70. 55. 980. 70.
1995-02-11 06:00:00 65. 55. 980. 65.
1995-02-11 12:00:00 60. 50. 985. 60.
1995-02-11 18:00:00 55. 55.
1995-02-12 00:00:00 50. 50.
1995-02-12 06:00:00 45. 45.
1995-02-12 12:00:00 40. 40.

top of page Links to source data

Source Source file Format
jtwc_sh bsh101995.txt ATCF
reunion WMO-Best-Tracks.txt:Line=16961:gail WMO (old format)
neumann tracks.sh:Storm=1023:GAIL:BSH101995:JTWC HURDAT